Time;durP1;ratioP1;P1;durP2;ratioP2;P2;SDS_P1;SDS_P2;PMS_P1;PMS_P2;Temp;Humidity;BMP_temperature;BMP_pressure;BME280_temperature;BME280_humidity;BME280_pressure;Samples;Min_cycle;Max_cycle;Signal;HPM_P1;HPM_P2
2022/02/18 00:00:05;;;;;;;6.43;1.80;;;9.20;99.90;;;;;;5001594;28;20205;-59
2022/02/18 00:02:31;;;;;;;6.68;2.20;;;9.20;99.90;;;;;;5002916;28;20085;-59
2022/02/18 00:04:58;;;;;;;5.75;2.17;;;9.20;99.90;;;;;;5003151;28;20467;-60
2022/02/18 00:07:28;;;;;;;6.30;2.22;;;9.20;99.90;;;;;;5003153;28;20126;-59
2022/02/18 00:09:55;;;;;;;5.30;1.85;;;9.20;99.90;;;;;;5002334;28;20065;-59
2022/02/18 00:12:21;;;;;;;6.00;2.10;;;9.20;99.90;;;;;;5003317;28;20555;-59
2022/02/18 00:14:50;;;;;;;6.47;1.83;;;9.20;99.90;;;;;;5000238;28;20293;-59
2022/02/18 00:17:17;;;;;;;4.50;1.70;;;9.20;99.90;;;;;;5000596;28;20552;-59
2022/02/18 00:19:44;;;;;;;6.82;2.13;;;9.30;99.90;;;;;;5000417;28;20483;-59
2022/02/18 00:22:11;;;;;;;8.68;1.85;;;9.30;99.90;;;;;;5002481;28;20047;-59
2022/02/18 00:24:37;;;;;;;10.25;2.95;;;9.20;99.90;;;;;;5002118;28;20128;-59
2022/02/18 00:27:04;;;;;;;6.22;2.03;;;9.20;99.90;;;;;;5002731;28;20100;-59
2022/02/18 00:29:31;;;;;;;6.78;2.30;;;9.30;99.90;;;;;;5001566;28;20717;-59
2022/02/18 00:31:58;;;;;;;6.60;2.45;;;9.20;99.90;;;;;;5003233;28;20073;-59
2022/02/18 00:34:25;;;;;;;7.55;2.20;;;9.30;99.90;;;;;;5002331;28;20054;-59
2022/02/18 00:36:51;;;;;;;10.68;2.92;;;9.30;99.90;;;;;;5002847;28;20111;-59
2022/02/18 00:39:18;;;;;;;7.40;2.33;;;9.30;99.90;;;;;;5001569;28;20157;-59
2022/02/18 00:41:45;;;;;;;6.68;2.30;;;9.30;99.90;;;;;;5002613;28;20556;-59
2022/02/18 00:44:11;;;;;;;8.48;2.13;;;9.30;99.90;;;;;;5000608;28;20129;-59
2022/02/18 00:46:38;;;;;;;8.55;2.88;;;9.30;99.90;;;;;;5002737;28;20050;-59
2022/02/18 00:49:05;;;;;;;7.65;2.53;;;9.30;99.90;;;;;;5001940;28;20133;-59
2022/02/18 00:51:32;;;;;;;8.05;3.35;;;9.30;99.90;;;;;;5002640;28;20486;-59
2022/02/18 00:53:58;;;;;;;6.10;2.10;;;9.30;99.90;;;;;;5001287;28;20089;-59
2022/02/18 00:56:25;;;;;;;8.35;2.63;;;9.30;99.90;;;;;;5003151;28;20140;-59
2022/02/18 00:58:52;;;;;;;6.53;2.72;;;9.30;99.90;;;;;;5001118;28;20208;-59
2022/02/18 01:01:19;;;;;;;6.70;2.50;;;9.30;99.90;;;;;;5002464;28;20080;-59
2022/02/18 01:03:46;;;;;;;6.72;2.35;;;9.30;99.90;;;;;;5001999;28;20133;-59
2022/02/18 01:06:13;;;;;;;5.63;2.08;;;9.30;99.90;;;;;;5000904;28;20096;-59
2022/02/18 01:08:42;;;;;;;7.72;2.20;;;9.30;99.90;;;;;;5000751;28;20050;-59
2022/02/18 01:11:09;;;;;;;6.47;2.30;;;9.30;99.90;;;;;;5002000;28;20153;-59
2022/02/18 01:13:36;;;;;;;9.50;2.55;;;9.30;99.90;;;;;;5000224;28;20053;-59
2022/02/18 01:16:03;;;;;;;8.82;2.53;;;9.30;99.90;;;;;;5000195;28;20141;-59
2022/02/18 01:18:29;;;;;;;6.40;2.13;;;9.30;99.90;;;;;;4999405;28;20089;-59
2022/02/18 01:20:56;;;;;;;8.55;2.00;;;9.30;99.90;;;;;;5000062;28;20148;-60
2022/02/18 01:23:23;;;;;;;7.88;2.55;;;9.30;99.90;;;;;;5000918;28;20211;-59
2022/02/18 01:25:50;;;;;;;9.40;2.58;;;9.30;99.90;;;;;;5001032;28;20086;-59
2022/02/18 01:28:16;;;;;;;8.80;2.45;;;9.30;99.90;;;;;;4999652;28;20046;-59
2022/02/18 01:30:43;;;;;;;7.45;2.33;;;9.30;99.90;;;;;;4999768;28;20050;-59
2022/02/18 01:33:10;;;;;;;9.48;2.30;;;9.40;99.90;;;;;;5001526;28;20169;-59
2022/02/18 01:35:37;;;;;;;7.70;2.58;;;9.40;99.90;;;;;;5000875;28;20489;-59
2022/02/18 01:38:05;;;;;;;7.43;2.92;;;9.40;99.90;;;;;;5002392;28;20332;-59
2022/02/18 01:40:32;;;;;;;10.43;2.75;;;9.40;99.90;;;;;;5001139;28;20216;-59
2022/02/18 01:42:59;;;;;;;9.75;2.38;;;9.40;99.90;;;;;;5001425;28;20399;-57
2022/02/18 01:45:26;;;;;;;7.53;2.30;;;9.50;99.90;;;;;;5000080;28;20133;-59
2022/02/18 01:47:53;;;;;;;7.60;2.03;;;9.40;99.90;;;;;;5001789;28;20665;-59
2022/02/18 01:50:20;;;;;;;10.32;2.90;;;9.40;99.90;;;;;;5001775;28;20295;-59
2022/02/18 01:52:49;;;;;;;7.18;2.38;;;9.50;99.90;;;;;;5001221;28;20664;-59
2022/02/18 01:55:16;;;;;;;9.77;3.10;;;9.40;99.90;;;;;;5000897;28;20101;-59
2022/02/18 01:57:48;;;;;;;12.68;3.35;;;9.40;99.90;;;;;;5000485;28;20544;-60
2022/02/18 02:00:16;;;;;;;10.82;3.05;;;9.40;99.90;;;;;;4999929;28;20865;-60
2022/02/18 02:02:43;;;;;;;12.32;2.90;;;9.40;99.90;;;;;;5001754;28;20498;-60
2022/02/18 02:05:10;;;;;;;7.38;2.40;;;9.40;99.90;;;;;;5001367;28;20064;-60
2022/02/18 02:07:39;;;;;;;11.15;4.30;;;9.30;99.90;;;;;;5001781;28;20062;-59
2022/02/18 02:10:07;;;;;;;10.52;3.63;;;9.30;99.90;;;;;;5000726;28;20129;-60
2022/02/18 02:12:38;;;;;;;14.63;3.78;;;9.20;99.90;;;;;;5000812;28;20085;-60
2022/02/18 02:15:07;;;;;;;8.52;3.45;;;9.10;99.90;;;;;;5000077;28;20176;-60
2022/02/18 02:17:34;;;;;;;8.13;2.50;;;9.10;99.90;;;;;;4999894;28;20079;-59
2022/02/18 02:20:03;;;;;;;11.05;2.70;;;9.10;99.90;;;;;;4999382;28;20086;-60
2022/02/18 02:22:29;;;;;;;6.93;2.38;;;9.00;99.90;;;;;;5001101;28;20085;-59
2022/02/18 02:24:57;;;;;;;8.52;2.00;;;9.00;99.90;;;;;;5000661;28;20124;-59
2022/02/18 02:27:24;;;;;;;8.23;2.33;;;9.00;99.90;;;;;;4997229;28;20541;-60
2022/02/18 02:29:51;;;;;;;7.68;2.33;;;9.00;99.90;;;;;;4988654;28;20089;-60
2022/02/18 02:32:18;;;;;;;9.88;2.65;;;9.00;99.90;;;;;;4991787;28;20081;-59
2022/02/18 02:34:44;;;;;;;7.13;2.28;;;9.00;99.90;;;;;;4987166;28;20168;-60
2022/02/18 02:37:11;;;;;;;7.70;2.53;;;9.00;99.90;;;;;;4994283;28;20926;-60
2022/02/18 02:39:38;;;;;;;6.38;1.98;;;8.90;99.90;;;;;;4996204;28;20184;-59
2022/02/18 02:42:06;;;;;;;6.03;1.83;;;8.90;99.90;;;;;;5002384;28;20135;-59
2022/02/18 02:44:33;;;;;;;7.93;2.28;;;8.90;99.90;;;;;;5002471;28;20506;-60
2022/02/18 02:46:59;;;;;;;6.72;1.90;;;8.90;99.90;;;;;;5019566;28;20548;-61
2022/02/18 02:49:26;;;;;;;3.60;1.63;;;8.80;99.90;;;;;;5004409;28;20650;-60
2022/02/18 02:51:53;;;;;;;2.53;1.13;;;8.80;99.90;;;;;;5009903;28;20470;-60
2022/02/18 02:54:20;;;;;;;3.08;1.10;;;8.80;99.90;;;;;;5005603;28;20042;-59
2022/02/18 02:56:47;;;;;;;2.95;1.02;;;8.70;99.90;;;;;;5024605;28;20493;-60
2022/02/18 02:59:14;;;;;;;3.50;1.00;;;8.70;99.90;;;;;;5023449;28;20077;-60
2022/02/18 03:01:41;;;;;;;2.97;0.90;;;8.70;99.90;;;;;;5018866;28;20104;-60
2022/02/18 03:04:07;;;;;;;3.70;1.10;;;8.70;99.90;;;;;;5005922;28;20413;-60
2022/02/18 03:06:34;;;;;;;2.60;0.90;;;8.70;99.90;;;;;;5006920;28;20275;-60
2022/02/18 03:09:01;;;;;;;2.28;0.80;;;8.70;99.90;;;;;;5011101;28;20140;-60
2022/02/18 03:11:28;;;;;;;1.35;0.52;;;8.70;99.90;;;;;;5017438;28;20263;-60
2022/02/18 03:13:54;;;;;;;2.20;0.40;;;8.70;99.90;;;;;;5003723;28;20135;-60
2022/02/18 03:16:21;;;;;;;1.60;0.70;;;8.70;99.90;;;;;;5024952;28;20148;-59
2022/02/18 03:18:48;;;;;;;1.90;0.43;;;8.70;99.90;;;;;;5018000;28;20148;-59
2022/02/18 03:21:15;;;;;;;0.55;0.40;;;8.70;99.90;;;;;;5012222;28;20222;-59
2022/02/18 03:23:46;;;;;;;1.10;0.50;;;8.70;99.90;;;;;;5012233;28;20066;-59
2022/02/18 03:26:16;;;;;;;1.33;0.60;;;8.70;99.90;;;;;;5010258;28;20055;-59
2022/02/18 03:28:43;;;;;;;1.90;0.50;;;8.70;99.90;;;;;;5007011;28;20052;-60
2022/02/18 03:31:10;;;;;;;0.95;0.30;;;8.80;99.90;;;;;;5023110;28;20062;-59
2022/02/18 03:33:40;;;;;;;1.58;0.40;;;8.80;99.90;;;;;;5005302;28;20137;-60
2022/02/18 03:36:07;;;;;;;1.55;0.47;;;8.80;99.90;;;;;;5008917;28;20061;-59
2022/02/18 03:38:34;;;;;;;0.65;0.40;;;8.80;99.90;;;;;;5009727;28;20062;-60
2022/02/18 03:41:01;;;;;;;1.02;0.35;;;8.90;99.90;;;;;;5008518;28;20046;-60
2022/02/18 03:43:27;;;;;;;0.40;0.22;;;8.90;99.90;;;;;;4999609;28;20081;-60
2022/02/18 03:45:54;;;;;;;1.88;0.50;;;8.90;99.90;;;;;;4993464;28;20459;-60
2022/02/18 03:48:21;;;;;;;0.45;0.25;;;9.00;99.90;;;;;;4986732;28;20054;-60
2022/02/18 03:50:48;;;;;;;0.75;0.40;;;9.00;99.90;;;;;;4999817;28;20413;-60
2022/02/18 03:53:14;;;;;;;0.73;0.30;;;9.00;99.90;;;;;;5002699;28;20137;-60
2022/02/18 03:55:41;;;;;;;0.20;0.20;;;9.10;99.90;;;;;;4992349;28;20077;-60
2022/02/18 03:58:08;;;;;;;0.68;0.40;;;9.10;99.90;;;;;;5000492;28;20137;-60
2022/02/18 04:00:35;;;;;;;1.25;0.30;;;9.10;99.90;;;;;;4986991;28;20565;-60
2022/02/18 04:03:02;;;;;;;0.73;0.30;;;9.10;99.90;;;;;;4997628;28;20607;-58
2022/02/18 04:05:28;;;;;;;0.82;0.40;;;9.20;99.90;;;;;;4990565;28;20122;-60
2022/02/18 04:07:55;;;;;;;0.50;0.30;;;9.30;99.90;;;;;;5005320;28;20128;-60
2022/02/18 04:10:22;;;;;;;0.73;0.32;;;9.40;99.90;;;;;;5005094;28;20133;-61
2022/02/18 04:12:48;;;;;;;0.88;0.40;;;9.40;99.90;;;;;;5003214;28;20559;-60
2022/02/18 04:15:15;;;;;;;1.08;0.40;;;9.50;99.90;;;;;;5002826;28;20204;-60
2022/02/18 04:17:42;;;;;;;4.72;0.70;;;9.60;99.90;;;;;;5006080;28;20060;-60
2022/02/18 04:20:09;;;;;;;0.87;0.40;;;9.70;99.90;;;;;;5005335;28;20481;-60
2022/02/18 04:22:56;;;;;;;1.10;0.57;;;9.80;99.90;;;;;;5003416;28;20068;-59
2022/02/18 04:25:23;;;;;;;0.50;0.30;;;9.90;99.90;;;;;;5004182;28;20461;-59
2022/02/18 04:27:54;;;;;;;0.77;0.32;;;9.90;99.90;;;;;;5005632;28;20136;-60
2022/02/18 04:30:21;;;;;;;1.50;0.40;;;10.00;99.90;;;;;;4986989;28;20691;-60
2022/02/18 04:32:48;;;;;;;1.08;0.35;;;10.10;99.90;;;;;;4996868;28;20148;-60
2022/02/18 04:35:15;;;;;;;0.85;0.50;;;10.20;99.90;;;;;;4996668;28;20055;-60
2022/02/18 04:37:42;;;;;;;1.08;0.40;;;10.30;99.90;;;;;;4984033;28;20475;-60
2022/02/18 04:40:11;;;;;;;0.68;0.30;;;10.40;99.90;;;;;;5000222;28;20081;-60
2022/02/18 04:42:38;;;;;;;1.58;0.40;;;10.40;99.90;;;;;;4996239;28;20065;-60
2022/02/18 04:45:05;;;;;;;1.33;0.57;;;10.50;99.90;;;;;;4999253;28;20128;-60
2022/02/18 04:47:32;;;;;;;1.83;0.45;;;10.50;99.90;;;;;;4989255;28;20137;-61
2022/02/18 04:49:59;;;;;;;3.13;0.52;;;10.50;99.90;;;;;;4984935;28;20085;-60
2022/02/18 04:52:25;;;;;;;2.97;0.70;;;10.50;99.90;;;;;;5000493;28;20049;-60
2022/02/18 04:54:54;;;;;;;1.15;0.60;;;10.60;99.90;;;;;;5004585;28;20080;-60
2022/02/18 04:57:21;;;;;;;1.95;0.80;;;10.60;99.90;;;;;;4987159;28;20074;-60
2022/02/18 04:59:47;;;;;;;2.78;0.68;;;10.70;99.90;;;;;;4998437;28;20132;-60
2022/02/18 05:02:16;;;;;;;2.33;0.70;;;10.70;99.90;;;;;;4991289;28;20133;-60
2022/02/18 05:04:43;;;;;;;2.00;0.70;;;10.70;99.90;;;;;;5004467;28;20042;-60
2022/02/18 05:07:10;;;;;;;2.80;0.85;;;10.70;99.90;;;;;;4998832;28;20141;-60
2022/02/18 05:09:37;;;;;;;2.15;0.80;;;10.80;99.90;;;;;;4984569;28;20142;-60
2022/02/18 05:12:04;;;;;;;1.45;0.60;;;10.70;99.90;;;;;;4993812;28;20085;-60
2022/02/18 05:14:31;;;;;;;1.63;0.50;;;10.70;99.90;;;;;;5003002;28;20164;-60
2022/02/18 05:16:57;;;;;;;1.55;0.55;;;10.80;99.90;;;;;;5000644;28;20235;-60
2022/02/18 05:19:24;;;;;;;2.08;0.50;;;10.80;99.90;;;;;;4985848;28;20494;-60
2022/02/18 05:21:51;;;;;;;1.50;0.60;;;10.90;99.90;;;;;;4991976;28;20165;-60
2022/02/18 05:24:18;;;;;;;0.85;0.40;;;10.90;99.90;;;;;;5000539;28;20129;-61
2022/02/18 05:26:44;;;;;;;3.25;0.70;;;10.90;99.90;;;;;;4990776;28;20443;-60
2022/02/18 05:29:11;;;;;;;1.40;0.70;;;10.90;99.90;;;;;;4998040;28;20153;-60
2022/02/18 05:31:38;;;;;;;1.77;0.60;;;10.90;99.90;;;;;;4998117;28;20138;-60
2022/02/18 05:34:05;;;;;;;1.55;0.70;;;11.00;99.90;;;;;;5003821;28;20088;-60
2022/02/18 05:36:32;;;;;;;1.40;0.52;;;11.00;99.90;;;;;;5003986;28;20125;-60
2022/02/18 05:38:58;;;;;;;2.83;0.77;;;11.00;99.90;;;;;;4989570;28;20483;-60
2022/02/18 05:41:25;;;;;;;2.45;0.60;;;11.00;99.90;;;;;;4987448;28;20116;-60
2022/02/18 05:43:52;;;;;;;1.80;0.95;;;11.00;99.90;;;;;;5001754;28;20152;-60
2022/02/18 05:46:19;;;;;;;0.95;0.50;;;11.00;99.90;;;;;;4998835;28;20528;-60
2022/02/18 05:48:45;;;;;;;2.15;0.52;;;11.00;99.90;;;;;;4997666;28;20592;-60
2022/02/18 05:51:12;;;;;;;1.42;0.75;;;11.00;99.90;;;;;;4993394;28;20125;-60
2022/02/18 05:53:39;;;;;;;1.90;0.50;;;11.10;99.90;;;;;;4994406;28;20133;-61
2022/02/18 05:56:06;;;;;;;1.83;0.70;;;11.10;99.90;;;;;;4984458;28;20489;-60
2022/02/18 05:58:32;;;;;;;1.83;0.52;;;11.10;99.90;;;;;;5002204;28;20129;-60
2022/02/18 06:00:59;;;;;;;0.98;0.70;;;11.10;99.90;;;;;;4995263;28;20078;-60
2022/02/18 06:03:26;;;;;;;1.90;0.80;;;11.10;99.90;;;;;;4991068;28;20057;-60
2022/02/18 06:05:53;;;;;;;2.97;1.25;;;11.10;99.90;;;;;;4982304;28;20094;-60
2022/02/18 06:08:20;;;;;;;2.20;0.50;;;11.10;99.90;;;;;;4998472;28;20125;-61
2022/02/18 06:10:47;;;;;;;0.47;0.40;;;11.10;99.90;;;;;;4994607;28;20056;-61
2022/02/18 06:13:13;;;;;;;1.10;0.50;;;11.10;99.90;;;;;;4995152;28;20100;-60
2022/02/18 06:15:40;;;;;;;1.63;0.68;;;11.10;99.90;;;;;;4987352;28;20041;-61
2022/02/18 06:18:07;;;;;;;0.90;0.50;;;11.10;99.90;;;;;;4989506;28;20213;-59
2022/02/18 06:20:33;;;;;;;1.95;0.50;;;11.10;99.90;;;;;;4995614;28;20073;-60
2022/02/18 06:23:00;;;;;;;1.55;0.50;;;11.10;99.90;;;;;;4999144;28;20042;-61
2022/02/18 06:25:27;;;;;;;1.65;0.82;;;11.10;99.90;;;;;;4996328;28;20046;-61
2022/02/18 06:28:06;;;;;;;2.92;0.43;;;11.10;99.90;;;;;;5008521;28;20077;-60
2022/02/18 06:30:34;;;;;;;2.17;0.50;;;11.10;99.90;;;;;;5002717;28;20419;-61
2022/02/18 06:33:01;;;;;;;1.38;0.60;;;11.10;99.90;;;;;;5003958;28;20061;-61
2022/02/18 06:35:28;;;;;;;0.45;0.30;;;11.10;99.90;;;;;;5000629;28;20057;-60
2022/02/18 06:37:54;;;;;;;0.93;0.20;;;11.20;99.90;;;;;;4996932;28;20089;-61
2022/02/18 06:40:21;;;;;;;1.70;0.82;;;11.20;99.90;;;;;;5000331;28;20064;-60
2022/02/18 06:42:48;;;;;;;1.13;0.38;;;11.10;99.90;;;;;;4995186;28;20367;-60
2022/02/18 06:45:17;;;;;;;1.30;0.50;;;11.10;99.90;;;;;;5000797;28;20129;-59
2022/02/18 06:47:46;;;;;;;0.50;0.38;;;11.10;99.90;;;;;;4993386;28;20482;-59
2022/02/18 06:50:16;;;;;;;0.95;0.20;;;11.00;99.90;;;;;;5002770;28;20161;-60
2022/02/18 06:52:44;;;;;;;1.92;0.30;;;11.00;99.90;;;;;;5008815;28;20148;-60
2022/02/18 06:55:11;;;;;;;1.08;0.40;;;11.00;99.90;;;;;;5004544;28;20496;-60
2022/02/18 06:57:40;;;;;;;1.88;0.50;;;11.00;99.90;;;;;;5006003;28;20489;-60
2022/02/18 07:00:07;;;;;;;1.30;0.40;;;11.00;99.90;;;;;;5009151;28;20171;-60
2022/02/18 07:02:34;;;;;;;1.20;0.30;;;11.00;99.90;;;;;;5009576;28;20497;-59
2022/02/18 07:05:01;;;;;;;0.70;0.30;;;11.00;99.90;;;;;;5006264;28;20133;-60
2022/02/18 07:07:28;;;;;;;0.57;0.30;;;11.00;99.90;;;;;;5010029;28;20792;-60
2022/02/18 07:09:54;;;;;;;1.48;0.40;;;11.00;99.90;;;;;;5005956;28;20077;-60
2022/02/18 07:12:25;;;;;;;1.38;0.30;;;11.00;99.90;;;;;;5008153;28;20449;-60
2022/02/18 07:14:54;;;;;;;1.25;0.40;;;11.00;99.90;;;;;;5007869;28;20377;-60
2022/02/18 07:17:22;;;;;;;0.43;0.32;;;11.00;99.90;;;;;;5003105;28;20540;-61
2022/02/18 07:19:49;;;;;;;2.60;0.82;;;11.00;99.90;;;;;;5006192;28;20164;-60
2022/02/18 07:22:16;;;;;;;1.38;0.50;;;11.00;99.90;;;;;;5007193;28;20228;-60
2022/02/18 07:24:45;;;;;;;1.50;0.52;;;11.00;99.90;;;;;;5008834;28;20049;-60
2022/02/18 07:27:12;;;;;;;3.70;0.98;;;11.00;99.90;;;;;;4993919;28;20144;-60
2022/02/18 07:29:39;;;;;;;4.35;1.35;;;10.90;99.90;;;;;;5006006;28;20128;-60
2022/02/18 07:32:07;;;;;;;3.03;1.38;;;10.90;99.90;;;;;;5001495;28;20128;-59
2022/02/18 07:34:33;;;;;;;3.70;1.10;;;10.80;99.90;;;;;;4995910;28;20133;-60
2022/02/18 07:37:00;;;;;;;4.82;1.35;;;10.80;99.90;;;;;;4990094;28;20109;-59
2022/02/18 07:39:27;;;;;;;4.55;1.42;;;10.80;99.90;;;;;;4984023;28;20074;-60
2022/02/18 07:41:54;;;;;;;5.13;1.95;;;10.80;99.90;;;;;;4995644;28;20151;-60
2022/02/18 07:44:20;;;;;;;5.00;1.60;;;10.80;99.90;;;;;;4992611;28;20053;-60
2022/02/18 07:46:48;;;;;;;6.05;1.55;;;10.80;99.90;;;;;;4985720;28;20168;-60
2022/02/18 07:49:35;;;;;;;5.40;1.40;;;10.70;99.90;;;;;;4989531;28;20137;-60
2022/02/18 07:52:02;;;;;;;5.20;1.52;;;10.80;99.90;;;;;;4991514;28;20181;-60
2022/02/18 07:54:29;;;;;;;6.70;1.60;;;10.80;99.90;;;;;;4990475;28;20585;-59
2022/02/18 07:56:56;;;;;;;5.50;1.52;;;10.70;99.90;;;;;;5006394;28;20228;-60
2022/02/18 07:59:22;;;;;;;4.40;1.10;;;10.70;99.90;;;;;;4988629;28;20480;-59
2022/02/18 08:01:49;;;;;;;9.98;2.03;;;10.60;99.90;;;;;;4998502;28;20082;-61
2022/02/18 08:04:16;;;;;;;5.45;1.88;;;10.60;99.90;;;;;;4992042;28;20557;-61
2022/02/18 08:06:43;;;;;;;8.40;1.63;;;10.40;99.90;;;;;;4994862;28;20081;-61
2022/02/18 08:09:09;;;;;;;9.45;1.80;;;10.30;99.90;;;;;;5005444;28;20072;-59
2022/02/18 08:11:38;;;;;;;10.68;2.55;;;10.30;99.90;;;;;;4994168;28;20185;-61
2022/02/18 08:14:05;;;;;;;10.75;2.28;;;10.20;99.90;;;;;;4996204;28;20403;-61
2022/02/18 08:16:32;;;;;;;9.98;2.30;;;10.20;99.90;;;;;;4991346;28;20479;-60
2022/02/18 08:18:59;;;;;;;14.18;3.05;;;10.20;99.90;;;;;;4999988;28;20053;-61
2022/02/18 08:21:26;;;;;;;14.35;3.20;;;10.20;99.90;;;;;;4999222;28;20133;-61
2022/02/18 08:23:53;;;;;;;14.75;4.20;;;10.10;99.90;;;;;;4998983;28;20144;-60
2022/02/18 08:26:20;;;;;;;16.83;4.38;;;10.10;99.90;;;;;;4996204;28;20145;-61
2022/02/18 08:28:48;;;;;;;17.02;3.97;;;10.10;99.90;;;;;;4989197;28;20471;-60
2022/02/18 08:31:15;;;;;;;13.80;4.40;;;10.10;99.90;;;;;;5006408;28;20077;-60
2022/02/18 08:33:43;;;;;;;15.90;3.75;;;10.10;99.90;;;;;;4989395;28;20085;-59
2022/02/18 08:36:10;;;;;;;13.38;3.22;;;10.10;99.90;;;;;;5007742;28;20133;-60
2022/02/18 08:38:37;;;;;;;11.27;3.13;;;10.10;99.90;;;;;;4980411;28;20534;-60
2022/02/18 08:41:04;;;;;;;21.45;4.95;;;10.10;99.90;;;;;;4978422;28;20073;-60
2022/02/18 08:43:31;;;;;;;19.23;3.90;;;10.10;99.90;;;;;;4992358;28;20773;-59
2022/02/18 08:45:58;;;;;;;17.98;5.85;;;10.10;99.90;;;;;;4997219;28;20085;-60
2022/02/18 08:48:24;;;;;;;23.25;4.85;;;10.10;99.90;;;;;;4999166;28;20585;-59
2022/02/18 08:50:51;;;;;;;23.65;6.63;;;10.10;99.90;;;;;;4999533;28;20061;-60
2022/02/18 08:53:18;;;;;;;19.83;5.05;;;10.10;99.90;;;;;;4999411;28;20350;-60
2022/02/18 08:55:44;;;;;;;18.90;6.38;;;10.20;99.90;;;;;;4998633;28;20141;-59
2022/02/18 08:58:11;;;;;;;18.73;5.30;;;10.30;99.90;;;;;;4999692;28;20133;-60
2022/02/18 09:00:38;;;;;;;22.85;5.93;;;10.30;99.90;;;;;;4998161;28;20104;-60
2022/02/18 09:03:05;;;;;;;20.65;6.57;;;10.30;99.90;;;;;;4998891;28;20505;-60
2022/02/18 09:05:31;;;;;;;24.88;6.53;;;10.30;99.90;;;;;;4999181;28;20422;-59
2022/02/18 09:08:00;;;;;;;21.25;6.28;;;10.30;99.90;;;;;;4999674;28;20145;-59
2022/02/18 09:10:26;;;;;;;21.05;6.07;;;10.20;99.90;;;;;;4998469;28;20093;-60
2022/02/18 09:12:53;;;;;;;23.83;5.82;;;10.20;99.90;;;;;;4999412;28;20092;-60
2022/02/18 09:15:20;;;;;;;25.65;6.30;;;10.10;99.90;;;;;;4997306;28;20081;-60
2022/02/18 09:17:47;;;;;;;20.05;5.65;;;10.00;99.90;;;;;;4999365;28;20484;-59
2022/02/18 09:20:15;;;;;;;24.67;6.75;;;10.00;99.90;;;;;;4999240;28;20352;-60
2022/02/18 09:22:41;;;;;;;25.67;6.80;;;10.00;99.90;;;;;;4998477;28;20093;-60
2022/02/18 09:25:08;;;;;;;27.25;7.88;;;10.10;99.90;;;;;;4998839;28;20701;-60
2022/02/18 09:27:36;;;;;;;23.83;6.78;;;10.00;99.90;;;;;;4999489;28;20100;-60
2022/02/18 09:30:04;;;;;;;23.33;6.53;;;9.90;99.90;;;;;;4998308;28;20152;-60
2022/02/18 09:32:30;;;;;;;31.33;7.93;;;9.80;99.90;;;;;;4997446;28;20054;-59
2022/02/18 09:34:58;;;;;;;27.48;7.97;;;9.70;99.90;;;;;;4998802;28;20041;-60
2022/02/18 09:37:25;;;;;;;36.88;8.40;;;9.70;99.90;;;;;;4999058;28;20062;-60
2022/02/18 09:39:52;;;;;;;28.48;7.13;;;9.70;99.90;;;;;;4998292;28;20216;-60
2022/02/18 09:42:19;;;;;;;31.85;8.43;;;9.70;99.90;;;;;;4998739;28;20494;-60
2022/02/18 09:44:46;;;;;;;24.92;7.05;;;9.70;99.90;;;;;;4996239;28;20149;-60
2022/02/18 09:47:13;;;;;;;24.50;6.40;;;9.80;99.90;;;;;;4997547;28;20137;-60
2022/02/18 09:49:40;;;;;;;24.73;5.75;;;9.90;99.90;;;;;;4998598;28;20205;-60
2022/02/18 09:52:07;;;;;;;17.75;5.95;;;10.00;99.90;;;;;;4997450;28;20133;-59
2022/02/18 09:54:34;;;;;;;23.27;7.05;;;10.00;99.90;;;;;;4998184;28;20351;-60
2022/02/18 09:57:01;;;;;;;25.15;6.85;;;10.10;99.90;;;;;;4998515;28;20173;-60
2022/02/18 09:59:28;;;;;;;23.35;6.85;;;10.20;99.90;;;;;;4995627;28;20137;-59
2022/02/18 10:01:55;;;;;;;24.23;6.65;;;10.20;99.90;;;;;;4999167;28;20140;-57
2022/02/18 10:04:22;;;;;;;24.40;6.85;;;10.30;99.90;;;;;;4990784;28;20354;-59
2022/02/18 10:06:48;;;;;;;22.95;6.35;;;10.30;99.90;;;;;;4994691;28;20155;-59
2022/02/18 10:09:15;;;;;;;21.05;7.90;;;10.40;99.90;;;;;;4997711;28;20053;-59
2022/02/18 10:11:58;;;;;;;23.63;6.35;;;10.40;99.90;;;;;;4998957;28;20235;-59
2022/02/18 10:14:24;;;;;;;19.92;6.00;;;10.50;99.90;;;;;;4994870;28;20133;-60
2022/02/18 10:16:51;;;;;;;19.67;6.10;;;10.30;99.90;;;;;;4985760;28;20105;-60
2022/02/18 10:19:21;;;;;;;25.10;6.70;;;10.10;99.90;;;;;;4986031;28;20081;-59
2022/02/18 10:21:49;;;;;;;25.45;7.07;;;9.90;99.90;;;;;;4978881;28;20086;-59
2022/02/18 10:24:17;;;;;;;24.48;6.05;;;9.90;99.90;;;;;;4994945;28;20478;-59
2022/02/18 10:26:51;;;;;;;19.75;5.05;;;9.90;99.90;;;;;;4998470;28;20145;-60
2022/02/18 10:29:19;;;;;;;20.17;5.95;;;9.90;99.90;;;;;;4996364;28;20088;-59
2022/02/18 10:32:09;;;;;;;19.58;5.05;;;10.00;99.90;;;;;;4998420;28;20116;-59
2022/02/18 10:34:56;;;;;;;16.33;5.13;;;10.10;99.90;;;;;;4995776;28;20164;-60
2022/02/18 10:37:26;;;;;;;16.80;5.10;;;10.10;99.90;;;;;;4998067;28;20137;-59
2022/02/18 10:40:11;;;;;;;15.27;4.13;;;10.10;99.90;;;;;;4997338;28;20134;-59
2022/02/18 10:42:38;;;;;;;15.30;4.72;;;10.20;99.90;;;;;;4999012;28;20046;-59
2022/02/18 10:45:12;;;;;;;19.05;4.90;;;10.30;99.90;;;;;;4998818;28;20427;-59
2022/02/18 10:47:39;;;;;;;15.70;4.60;;;10.30;99.90;;;;;;5000308;28;20693;-60
2022/02/18 10:50:20;;;;;;;20.20;5.28;;;10.30;99.90;;;;;;5000850;28;20092;-59
2022/02/18 10:53:12;;;;;;;20.65;5.20;;;10.40;99.90;;;;;;5000559;28;20539;-59
2022/02/18 10:55:48;;;;;;;21.75;6.10;;;10.50;99.90;;;;;;5000952;28;20488;-60
2022/02/18 10:58:23;;;;;;;15.60;4.57;;;10.80;99.90;;;;;;5001233;28;20142;-59
2022/02/18 11:01:11;;;;;;;21.60;6.50;;;10.90;99.90;;;;;;5000038;28;20129;-59
2022/02/18 11:03:43;;;;;;;19.48;4.97;;;10.80;99.90;;;;;;5000226;28;20141;-59
2022/02/18 11:06:13;;;;;;;17.25;5.43;;;10.80;99.90;;;;;;5001454;28;20121;-59
2022/02/18 11:08:59;;;;;;;20.10;5.65;;;11.00;99.90;;;;;;5002871;28;20096;-59
2022/02/18 11:11:43;;;;;;;21.00;6.45;;;11.00;99.90;;;;;;5004666;28;20500;-59
2022/02/18 11:14:12;;;;;;;23.05;5.70;;;10.90;99.90;;;;;;4998980;28;20084;-59
2022/02/18 11:16:40;;;;;;;17.75;5.68;;;10.90;99.90;;;;;;5001201;28;20506;-60
2022/02/18 11:19:07;;;;;;;23.17;5.95;;;11.10;99.90;;;;;;5000750;28;20148;-59
2022/02/18 11:21:34;;;;;;;22.05;4.88;;;11.20;99.90;;;;;;5000904;28;20873;-59
2022/02/18 11:24:03;;;;;;;18.73;5.38;;;11.10;99.90;;;;;;5000142;28;20092;-59
2022/02/18 11:26:31;;;;;;;24.35;6.03;;;11.20;99.90;;;;;;5001713;28;20096;-59
2022/02/18 11:28:59;;;;;;;19.17;5.75;;;11.10;99.90;;;;;;4999595;28;20646;-59
2022/02/18 11:31:33;;;;;;;19.63;5.70;;;10.80;99.90;;;;;;5000890;28;20132;-59
2022/02/18 11:34:07;;;;;;;21.05;5.63;;;10.50;99.90;;;;;;4991801;28;20082;-59
2022/02/18 11:37:15;;;;;;;23.48;5.93;;;10.50;99.90;;;;;;4994158;28;20414;-58
2022/02/18 11:39:55;;;;;;;29.33;6.93;;;10.70;99.90;;;;;;4996102;28;20208;-60
2022/02/18 11:42:58;;;;;;;17.20;4.38;;;10.70;99.90;;;;;;4981455;28;20540;-59
2022/02/18 11:45:39;;;;;;;16.98;4.97;;;10.90;99.90;;;;;;4999059;28;20066;-59
2022/02/18 11:48:05;;;;;;;19.20;5.45;;;10.90;99.90;;;;;;5001083;28;20088;-60
2022/02/18 11:50:32;;;;;;;14.75;4.82;;;11.00;99.90;;;;;;4990566;28;20197;-59
2022/02/18 11:53:00;;;;;;;20.42;5.10;;;10.90;99.90;;;;;;4996431;28;20148;-59
2022/02/18 11:55:37;;;;;;;19.08;5.00;;;10.90;99.90;;;;;;4998445;28;20054;-60
2022/02/18 11:58:11;;;;;;;13.38;4.95;;;10.80;99.90;;;;;;4999442;28;20085;-59
2022/02/18 12:00:45;;;;;;;18.70;5.43;;;10.80;99.90;;;;;;4997498;28;20295;-59
2022/02/18 12:03:16;;;;;;;19.15;5.70;;;10.80;99.90;;;;;;4998818;28;20065;-60
2022/02/18 12:06:16;;;;;;;16.75;5.22;;;10.70;99.90;;;;;;4996815;28;20533;-59
2022/02/18 12:08:49;;;;;;;16.58;4.82;;;10.70;99.90;;;;;;4998138;28;20145;-59
2022/02/18 12:11:17;;;;;;;20.42;7.05;;;10.80;99.90;;;;;;4998206;28;20057;-59
2022/02/18 12:14:16;;;;;;;14.15;4.63;;;10.80;99.90;;;;;;4997280;28;20504;-59
2022/02/18 12:16:43;;;;;;;14.45;4.78;;;10.80;99.90;;;;;;4975468;28;20429;-59
2022/02/18 12:19:13;;;;;;;17.20;5.35;;;10.80;99.90;;;;;;4997397;28;20133;-60
2022/02/18 12:21:55;;;;;;;18.70;5.18;;;10.80;99.90;;;;;;4999163;28;20061;-59
2022/02/18 12:24:43;;;;;;;18.23;4.97;;;10.80;99.90;;;;;;4997059;28;20068;-59
2022/02/18 12:27:31;;;;;;;16.98;4.63;;;10.80;99.90;;;;;;5000374;28;20543;-59
2022/02/18 12:30:00;;;;;;;14.60;4.40;;;11.00;99.90;;;;;;4998759;28;20076;-59
2022/02/18 12:32:27;;;;;;;14.13;3.80;;;10.90;99.90;;;;;;4999768;28;20103;-59
2022/02/18 12:35:05;;;;;;;11.60;3.63;;;10.90;99.90;;;;;;5000285;28;20140;-59
2022/02/18 12:37:33;;;;;;;17.08;4.60;;;10.80;99.90;;;;;;4999858;28;20069;-59
2022/02/18 12:40:04;;;;;;;15.45;3.80;;;10.70;99.90;;;;;;4999747;28;20160;-60
2022/02/18 12:42:31;;;;;;;11.63;4.10;;;10.90;99.90;;;;;;4999117;28;20522;-59
2022/02/18 12:44:59;;;;;;;10.45;2.90;;;11.00;99.90;;;;;;4998314;28;20670;-60
2022/02/18 12:47:28;;;;;;;8.65;2.45;;;10.90;99.90;;;;;;4999638;28;20093;-60
2022/02/18 12:49:56;;;;;;;8.68;2.60;;;10.70;99.90;;;;;;4999963;28;20441;-60
2022/02/18 12:52:27;;;;;;;6.07;2.42;;;10.60;99.90;;;;;;4997998;28;20136;-59
2022/02/18 12:54:58;;;;;;;6.40;2.35;;;10.70;99.90;;;;;;4997049;28;20120;-59